sensor_id;sensor_type;location;lat;lon;timestamp;temperature;humidity
41628;DHT22;27321;50.816;6.054;2023-05-10T00:02:16;15.90;78.50
41628;DHT22;27321;50.816;6.054;2023-05-10T00:05:17;15.80;78.60
41628;DHT22;27321;50.816;6.054;2023-05-10T00:08:17;15.90;78.50
41628;DHT22;27321;50.816;6.054;2023-05-10T00:11:18;15.80;78.80
41628;DHT22;27321;50.816;6.054;2023-05-10T00:14:20;15.80;78.90
41628;DHT22;27321;50.816;6.054;2023-05-10T00:17:21;15.80;79.00
41628;DHT22;27321;50.816;6.054;2023-05-10T00:20:22;15.80;78.80
41628;DHT22;27321;50.816;6.054;2023-05-10T00:23:23;15.80;78.70
41628;DHT22;27321;50.816;6.054;2023-05-10T00:26:24;15.80;78.70
41628;DHT22;27321;50.816;6.054;2023-05-10T00:29:28;15.80;78.40
41628;DHT22;27321;50.816;6.054;2023-05-10T00:32:29;15.80;78.70
41628;DHT22;27321;50.816;6.054;2023-05-10T00:35:30;15.80;78.60
41628;DHT22;27321;50.816;6.054;2023-05-10T00:38:31;15.80;78.20
41628;DHT22;27321;50.816;6.054;2023-05-10T00:41:32;15.80;78.30
41628;DHT22;27321;50.816;6.054;2023-05-10T00:44:34;15.80;78.40
41628;DHT22;27321;50.816;6.054;2023-05-10T00:47:35;15.80;78.30
41628;DHT22;27321;50.816;6.054;2023-05-10T00:50:36;15.70;78.80
41628;DHT22;27321;50.816;6.054;2023-05-10T00:53:37;15.80;78.50
41628;DHT22;27321;50.816;6.054;2023-05-10T00:56:38;15.60;78.60
41628;DHT22;27321;50.816;6.054;2023-05-10T00:59:40;15.60;78.70
41628;DHT22;27321;50.816;6.054;2023-05-10T01:02:41;15.60;79.20
41628;DHT22;27321;50.816;6.054;2023-05-10T01:05:42;15.60;79.20
41628;DHT22;27321;50.816;6.054;2023-05-10T01:08:43;15.60;79.20
41628;DHT22;27321;50.816;6.054;2023-05-10T01:11:44;15.60;78.90
41628;DHT22;27321;50.816;6.054;2023-05-10T01:14:45;15.60;78.80
41628;DHT22;27321;50.816;6.054;2023-05-10T01:17:46;15.60;79.10
41628;DHT22;27321;50.816;6.054;2023-05-10T01:20:48;15.70;78.60
41628;DHT22;27321;50.816;6.054;2023-05-10T01:27:34;15.70;78.80
41628;DHT22;27321;50.816;6.054;2023-05-10T01:34:23;15.60;78.60
41628;DHT22;27321;50.816;6.054;2023-05-10T01:37:33;15.60;78.90
41628;DHT22;27321;50.816;6.054;2023-05-10T01:44:16;15.60;78.40
41628;DHT22;27321;50.816;6.054;2023-05-10T01:47:44;15.60;79.00
41628;DHT22;27321;50.816;6.054;2023-05-10T01:50:47;15.60;78.60
41628;DHT22;27321;50.816;6.054;2023-05-10T01:53:48;15.50;78.70
41628;DHT22;27321;50.816;6.054;2023-05-10T01:56:52;15.50;78.90
41628;DHT22;27321;50.816;6.054;2023-05-10T01:59:57;15.40;79.10
41628;DHT22;27321;50.816;6.054;2023-05-10T02:03:00;15.40;79.10
41628;DHT22;27321;50.816;6.054;2023-05-10T02:06:04;15.40;79.50
41628;DHT22;27321;50.816;6.054;2023-05-10T02:09:06;15.50;79.10
41628;DHT22;27321;50.816;6.054;2023-05-10T02:12:07;15.50;79.00
41628;DHT22;27321;50.816;6.054;2023-05-10T02:15:10;15.40;78.70
41628;DHT22;27321;50.816;6.054;2023-05-10T02:18:11;15.40;78.80
41628;DHT22;27321;50.816;6.054;2023-05-10T02:21:14;15.40;78.90
41628;DHT22;27321;50.816;6.054;2023-05-10T02:24:15;15.30;78.40
41628;DHT22;27321;50.816;6.054;2023-05-10T02:27:17;15.30;79.10
41628;DHT22;27321;50.816;6.054;2023-05-10T02:30:18;15.20;79.30
41628;DHT22;27321;50.816;6.054;2023-05-10T02:33:19;15.20;79.40
41628;DHT22;27321;50.816;6.054;2023-05-10T02:36:21;15.10;79.40
41628;DHT22;27321;50.816;6.054;2023-05-10T02:39:22;15.10;79.40
41628;DHT22;27321;50.816;6.054;2023-05-10T02:42:25;15.10;79.50
41628;DHT22;27321;50.816;6.054;2023-05-10T02:45:28;15.10;79.60
41628;DHT22;27321;50.816;6.054;2023-05-10T02:48:31;15.10;79.40
41628;DHT22;27321;50.816;6.054;2023-05-10T02:51:32;15.10;79.40
41628;DHT22;27321;50.816;6.054;2023-05-10T02:54:45;15.10;79.20
41628;DHT22;27321;50.816;6.054;2023-05-10T02:57:51;15.10;79.10
41628;DHT22;27321;50.816;6.054;2023-05-10T03:00:54;15.00;78.90
41628;DHT22;27321;50.816;6.054;2023-05-10T03:03:55;15.00;79.10
41628;DHT22;27321;50.816;6.054;2023-05-10T03:06:56;15.00;78.80
41628;DHT22;27321;50.816;6.054;2023-05-10T03:09:57;15.00;78.40
41628;DHT22;27321;50.816;6.054;2023-05-10T03:13:05;14.90;78.60
41628;DHT22;27321;50.816;6.054;2023-05-10T03:16:19;14.90;78.20
41628;DHT22;27321;50.816;6.054;2023-05-10T03:23:41;14.90;78.70
41628;DHT22;27321;50.816;6.054;2023-05-10T03:26:36;14.90;78.40
41628;DHT22;27321;50.816;6.054;2023-05-10T03:29:44;14.90;78.50
41628;DHT22;27321;50.816;6.054;2023-05-10T03:32:47;14.80;78.30
41628;DHT22;27321;50.816;6.054;2023-05-10T03:35:50;14.80;78.20
41628;DHT22;27321;50.816;6.054;2023-05-10T03:38:51;14.80;78.40
41628;DHT22;27321;50.816;6.054;2023-05-10T03:41:52;14.80;78.50
41628;DHT22;27321;50.816;6.054;2023-05-10T03:44:53;14.90;78.40
41628;DHT22;27321;50.816;6.054;2023-05-10T03:47:54;14.90;78.40
41628;DHT22;27321;50.816;6.054;2023-05-10T03:50:55;15.00;78.20
41628;DHT22;27321;50.816;6.054;2023-05-10T03:53:56;15.00;77.90
41628;DHT22;27321;50.816;6.054;2023-05-10T03:56:58;15.00;77.70
41628;DHT22;27321;50.816;6.054;2023-05-10T03:59:59;15.00;77.80
41628;DHT22;27321;50.816;6.054;2023-05-10T04:03:00;15.00;77.90
41628;DHT22;27321;50.816;6.054;2023-05-10T04:06:02;15.00;78.00
41628;DHT22;27321;50.816;6.054;2023-05-10T04:09:03;15.10;77.90
41628;DHT22;27321;50.816;6.054;2023-05-10T04:12:04;15.10;77.90
41628;DHT22;27321;50.816;6.054;2023-05-10T04:15:06;15.00;78.10
41628;DHT22;27321;50.816;6.054;2023-05-10T04:18:07;15.00;78.50
41628;DHT22;27321;50.816;6.054;2023-05-10T04:21:11;15.00;78.50
41628;DHT22;27321;50.816;6.054;2023-05-10T04:24:13;15.00;78.50
41628;DHT22;27321;50.816;6.054;2023-05-10T04:27:15;15.00;78.40
41628;DHT22;27321;50.816;6.054;2023-05-10T04:30:16;15.10;78.50
41628;DHT22;27321;50.816;6.054;2023-05-10T04:33:17;15.10;78.20
41628;DHT22;27321;50.816;6.054;2023-05-10T04:36:18;15.10;77.80
41628;DHT22;27321;50.816;6.054;2023-05-10T04:39:19;15.10;78.50
41628;DHT22;27321;50.816;6.054;2023-05-10T04:42:19;15.10;78.30
41628;DHT22;27321;50.816;6.054;2023-05-10T04:45:20;15.10;78.40
41628;DHT22;27321;50.816;6.054;2023-05-10T04:48:21;15.10;78.30
41628;DHT22;27321;50.816;6.054;2023-05-10T04:51:22;15.10;78.50
41628;DHT22;27321;50.816;6.054;2023-05-10T04:54:23;15.00;78.30
41628;DHT22;27321;50.816;6.054;2023-05-10T04:57:24;15.00;78.50
41628;DHT22;27321;50.816;6.054;2023-05-10T05:00:25;15.00;78.90
41628;DHT22;27321;50.816;6.054;2023-05-10T05:03:26;15.00;78.90
41628;DHT22;27321;50.816;6.054;2023-05-10T05:06:27;15.10;79.00
41628;DHT22;27321;50.816;6.054;2023-05-10T05:09:28;15.10;78.50
41628;DHT22;27321;50.816;6.054;2023-05-10T05:12:29;15.10;78.50
41628;DHT22;27321;50.816;6.054;2023-05-10T05:15:29;15.10;79.00
41628;DHT22;27321;50.816;6.054;2023-05-10T05:18:31;15.10;79.00
41628;DHT22;27321;50.816;6.054;2023-05-10T05:21:32;15.10;79.40
41628;DHT22;27321;50.816;6.054;2023-05-10T05:24:36;15.10;79.30
41628;DHT22;27321;50.816;6.054;2023-05-10T05:27:40;15.10;79.20
41628;DHT22;27321;50.816;6.054;2023-05-10T05:30:41;15.10;79.20
41628;DHT22;27321;50.816;6.054;2023-05-10T05:33:42;15.10;79.00
41628;DHT22;27321;50.816;6.054;2023-05-10T05:36:43;15.10;79.60
41628;DHT22;27321;50.816;6.054;2023-05-10T05:39:44;15.10;79.10
41628;DHT22;27321;50.816;6.054;2023-05-10T05:42:45;15.20;79.50
41628;DHT22;27321;50.816;6.054;2023-05-10T05:45:46;15.20;79.40
41628;DHT22;27321;50.816;6.054;2023-05-10T05:48:47;15.20;79.50
41628;DHT22;27321;50.816;6.054;2023-05-10T05:51:48;15.20;79.40
41628;DHT22;27321;50.816;6.054;2023-05-10T05:54:50;15.30;79.40
41628;DHT22;27321;50.816;6.054;2023-05-10T05:57:51;15.30;79.00
41628;DHT22;27321;50.816;6.054;2023-05-10T06:00:52;15.30;79.30
41628;DHT22;27321;50.816;6.054;2023-05-10T06:03:53;15.40;79.30
41628;DHT22;27321;50.816;6.054;2023-05-10T06:06:54;15.40;79.40
41628;DHT22;27321;50.816;6.054;2023-05-10T06:09:55;15.40;79.60
41628;DHT22;27321;50.816;6.054;2023-05-10T06:12:55;15.40;79.60
41628;DHT22;27321;50.816;6.054;2023-05-10T06:15:56;15.30;79.50
41628;DHT22;27321;50.816;6.054;2023-05-10T06:18:58;15.20;79.60
41628;DHT22;27321;50.816;6.054;2023-05-10T06:21:59;15.30;79.70
41628;DHT22;27321;50.816;6.054;2023-05-10T06:25:00;15.30;79.50
41628;DHT22;27321;50.816;6.054;2023-05-10T06:28:00;15.30;79.80
41628;DHT22;27321;50.816;6.054;2023-05-10T06:31:02;15.30;79.90
41628;DHT22;27321;50.816;6.054;2023-05-10T06:34:03;15.40;79.80
41628;DHT22;27321;50.816;6.054;2023-05-10T06:37:04;15.50;79.70
41628;DHT22;27321;50.816;6.054;2023-05-10T06:40:05;15.60;79.80
41628;DHT22;27321;50.816;6.054;2023-05-10T06:43:07;15.60;79.20
41628;DHT22;27321;50.816;6.054;2023-05-10T06:46:08;15.50;78.80
41628;DHT22;27321;50.816;6.054;2023-05-10T06:49:09;15.50;79.30
41628;DHT22;27321;50.816;6.054;2023-05-10T06:52:10;15.50;79.30
41628;DHT22;27321;50.816;6.054;2023-05-10T06:55:11;15.50;79.30
41628;DHT22;27321;50.816;6.054;2023-05-10T06:58:12;15.40;79.30
41628;DHT22;27321;50.816;6.054;2023-05-10T07:01:13;15.40;79.10
41628;DHT22;27321;50.816;6.054;2023-05-10T07:04:13;15.40;79.30
41628;DHT22;27321;50.816;6.054;2023-05-10T07:07:14;15.40;79.70
41628;DHT22;27321;50.816;6.054;2023-05-10T07:10:15;15.40;79.40
41628;DHT22;27321;50.816;6.054;2023-05-10T07:13:16;15.30;79.50
41628;DHT22;27321;50.816;6.054;2023-05-10T07:16:17;15.20;79.00
41628;DHT22;27321;50.816;6.054;2023-05-10T07:19:18;15.10;79.30
41628;DHT22;27321;50.816;6.054;2023-05-10T07:22:20;15.10;79.70
41628;DHT22;27321;50.816;6.054;2023-05-10T07:25:20;15.10;80.00
41628;DHT22;27321;50.816;6.054;2023-05-10T07:28:21;15.10;79.80
41628;DHT22;27321;50.816;6.054;2023-05-10T07:31:22;15.10;80.20
41628;DHT22;27321;50.816;6.054;2023-05-10T07:34:23;15.10;80.00
41628;DHT22;27321;50.816;6.054;2023-05-10T07:37:24;15.10;79.70
41628;DHT22;27321;50.816;6.054;2023-05-10T07:40:25;15.00;79.40
41628;DHT22;27321;50.816;6.054;2023-05-10T07:43:26;15.00;79.30
41628;DHT22;27321;50.816;6.054;2023-05-10T07:46:27;15.00;79.60
41628;DHT22;27321;50.816;6.054;2023-05-10T07:49:27;15.00;80.00
41628;DHT22;27321;50.816;6.054;2023-05-10T07:52:28;15.00;80.20
41628;DHT22;27321;50.816;6.054;2023-05-10T07:55:29;15.10;80.10
41628;DHT22;27321;50.816;6.054;2023-05-10T07:58:30;15.20;80.20
41628;DHT22;27321;50.816;6.054;2023-05-10T08:01:31;15.30;80.00
41628;DHT22;27321;50.816;6.054;2023-05-10T08:04:33;15.30;79.40
41628;DHT22;27321;50.816;6.054;2023-05-10T08:07:34;15.20;79.70
41628;DHT22;27321;50.816;6.054;2023-05-10T08:10:35;15.20;80.20
41628;DHT22;27321;50.816;6.054;2023-05-10T08:13:36;15.30;80.00
41628;DHT22;27321;50.816;6.054;2023-05-10T08:16:37;15.30;80.10
41628;DHT22;27321;50.816;6.054;2023-05-10T08:19:38;15.30;79.80
41628;DHT22;27321;50.816;6.054;2023-05-10T08:22:39;15.30;79.30
41628;DHT22;27321;50.816;6.054;2023-05-10T08:25:40;15.20;78.90
41628;DHT22;27321;50.816;6.054;2023-05-10T08:28:41;15.10;78.80
41628;DHT22;27321;50.816;6.054;2023-05-10T08:31:41;15.20;78.90
41628;DHT22;27321;50.816;6.054;2023-05-10T08:34:42;15.20;79.00
41628;DHT22;27321;50.816;6.054;2023-05-10T08:37:43;15.30;79.30
41628;DHT22;27321;50.816;6.054;2023-05-10T08:40:44;15.30;78.00
41628;DHT22;27321;50.816;6.054;2023-05-10T08:43:46;15.20;78.70
41628;DHT22;27321;50.816;6.054;2023-05-10T08:46:47;15.30;78.10
41628;DHT22;27321;50.816;6.054;2023-05-10T08:49:50;15.30;78.20
41628;DHT22;27321;50.816;6.054;2023-05-10T08:52:51;15.30;78.50
41628;DHT22;27321;50.816;6.054;2023-05-10T08:55:54;15.50;77.90
41628;DHT22;27321;50.816;6.054;2023-05-10T08:58:56;15.30;77.90
41628;DHT22;27321;50.816;6.054;2023-05-10T09:01:58;15.30;77.70
41628;DHT22;27321;50.816;6.054;2023-05-10T09:04:59;15.30;77.80
41628;DHT22;27321;50.816;6.054;2023-05-10T09:08:00;15.30;77.60
41628;DHT22;27321;50.816;6.054;2023-05-10T09:11:01;15.30;77.60
41628;DHT22;27321;50.816;6.054;2023-05-10T09:14:03;15.40;77.90
41628;DHT22;27321;50.816;6.054;2023-05-10T09:17:04;15.50;77.90
41628;DHT22;27321;50.816;6.054;2023-05-10T09:20:05;15.60;77.70
41628;DHT22;27321;50.816;6.054;2023-05-10T09:23:07;15.70;77.60
41628;DHT22;27321;50.816;6.054;2023-05-10T09:26:08;15.80;77.50
41628;DHT22;27321;50.816;6.054;2023-05-10T09:29:09;16.00;77.50
41628;DHT22;27321;50.816;6.054;2023-05-10T09:32:10;16.00;77.30
41628;DHT22;27321;50.816;6.054;2023-05-10T09:35:12;16.10;76.90
41628;DHT22;27321;50.816;6.054;2023-05-10T09:38:14;16.10;76.80
41628;DHT22;27321;50.816;6.054;2023-05-10T09:41:19;16.10;76.30
41628;DHT22;27321;50.816;6.054;2023-05-10T09:44:22;16.20;76.00
41628;DHT22;27321;50.816;6.054;2023-05-10T09:47:23;16.10;76.00
41628;DHT22;27321;50.816;6.054;2023-05-10T09:50:25;16.10;76.00
41628;DHT22;27321;50.816;6.054;2023-05-10T09:53:27;16.10;75.80
41628;DHT22;27321;50.816;6.054;2023-05-10T09:56:34;16.10;75.80
41628;DHT22;27321;50.816;6.054;2023-05-10T09:59:36;16.20;75.70
41628;DHT22;27321;50.816;6.054;2023-05-10T10:02:44;16.20;75.90
41628;DHT22;27321;50.816;6.054;2023-05-10T10:05:48;16.30;75.80
41628;DHT22;27321;50.816;6.054;2023-05-10T10:08:50;16.40;75.90
41628;DHT22;27321;50.816;6.054;2023-05-10T10:11:51;16.50;76.00
41628;DHT22;27321;50.816;6.054;2023-05-10T10:14:52;16.60;75.50
41628;DHT22;27321;50.816;6.054;2023-05-10T10:17:54;16.60;73.60
41628;DHT22;27321;50.816;6.054;2023-05-10T10:20:54;16.60;73.80
41628;DHT22;27321;50.816;6.054;2023-05-10T10:23:57;16.60;73.70
41628;DHT22;27321;50.816;6.054;2023-05-10T10:27:00;16.60;73.30
41628;DHT22;27321;50.816;6.054;2023-05-10T10:36:31;17.00;72.90
41628;DHT22;27321;50.816;6.054;2023-05-10T10:39:34;17.00;71.70
41628;DHT22;27321;50.816;6.054;2023-05-10T10:42:43;17.00;71.90
41628;DHT22;27321;50.816;6.054;2023-05-10T10:45:47;16.90;71.10
41628;DHT22;27321;50.816;6.054;2023-05-10T10:49:15;17.00;72.50
41628;DHT22;27321;50.816;6.054;2023-05-10T10:52:21;17.10;72.40
41628;DHT22;27321;50.816;6.054;2023-05-10T10:55:30;17.10;72.10
41628;DHT22;27321;50.816;6.054;2023-05-10T10:58:31;17.10;71.20
41628;DHT22;27321;50.816;6.054;2023-05-10T11:01:33;17.10;71.70
41628;DHT22;27321;50.816;6.054;2023-05-10T11:04:43;17.20;71.40
41628;DHT22;27321;50.816;6.054;2023-05-10T11:07:53;17.30;70.70
41628;DHT22;27321;50.816;6.054;2023-05-10T11:14:04;17.40;70.60
41628;DHT22;27321;50.816;6.054;2023-05-10T11:20:41;17.50;69.40
41628;DHT22;27321;50.816;6.054;2023-05-10T11:23:52;17.50;69.10
41628;DHT22;27321;50.816;6.054;2023-05-10T11:26:57;17.60;69.90
41628;DHT22;27321;50.816;6.054;2023-05-10T11:29:58;17.60;70.10
41628;DHT22;27321;50.816;6.054;2023-05-10T11:32:59;17.60;70.30
41628;DHT22;27321;50.816;6.054;2023-05-10T11:36:00;17.80;70.20
41628;DHT22;27321;50.816;6.054;2023-05-10T11:39:01;17.80;70.20
41628;DHT22;27321;50.816;6.054;2023-05-10T11:42:02;17.70;69.20
41628;DHT22;27321;50.816;6.054;2023-05-10T11:45:03;17.60;70.00
41628;DHT22;27321;50.816;6.054;2023-05-10T11:48:05;17.50;70.20
41628;DHT22;27321;50.816;6.054;2023-05-10T11:51:09;17.60;70.80
41628;DHT22;27321;50.816;6.054;2023-05-10T11:54:11;17.60;70.80
41628;DHT22;27321;50.816;6.054;2023-05-10T11:57:12;17.60;70.30
41628;DHT22;27321;50.816;6.054;2023-05-10T12:00:13;17.70;69.80
41628;DHT22;27321;50.816;6.054;2023-05-10T12:03:16;17.60;70.50
41628;DHT22;27321;50.816;6.054;2023-05-10T12:06:20;17.60;70.40
41628;DHT22;27321;50.816;6.054;2023-05-10T12:09:22;17.60;69.40
41628;DHT22;27321;50.816;6.054;2023-05-10T12:12:22;17.60;70.30
41628;DHT22;27321;50.816;6.054;2023-05-10T12:15:24;17.60;70.70
41628;DHT22;27321;50.816;6.054;2023-05-10T12:18:25;17.50;69.70
41628;DHT22;27321;50.816;6.054;2023-05-10T12:21:27;17.60;70.60
41628;DHT22;27321;50.816;6.054;2023-05-10T12:24:29;17.80;70.80
41628;DHT22;27321;50.816;6.054;2023-05-10T12:27:33;17.90;69.90
41628;DHT22;27321;50.816;6.054;2023-05-10T12:30:34;18.00;70.10
41628;DHT22;27321;50.816;6.054;2023-05-10T12:33:40;18.00;69.10
41628;DHT22;27321;50.816;6.054;2023-05-10T12:36:42;18.00;68.60
41628;DHT22;27321;50.816;6.054;2023-05-10T12:39:44;18.00;68.60
41628;DHT22;27321;50.816;6.054;2023-05-10T12:42:45;18.00;68.20
41628;DHT22;27321;50.816;6.054;2023-05-10T12:45:45;18.00;68.70
41628;DHT22;27321;50.816;6.054;2023-05-10T12:48:49;18.10;68.10
41628;DHT22;27321;50.816;6.054;2023-05-10T12:51:55;18.10;67.20
41628;DHT22;27321;50.816;6.054;2023-05-10T12:54:56;18.10;67.40
41628;DHT22;27321;50.816;6.054;2023-05-10T12:57:57;18.20;67.80
41628;DHT22;27321;50.816;6.054;2023-05-10T13:00:58;18.30;67.40
41628;DHT22;27321;50.816;6.054;2023-05-10T13:03:59;18.40;67.20
41628;DHT22;27321;50.816;6.054;2023-05-10T13:07:00;18.50;66.10
41628;DHT22;27321;50.816;6.054;2023-05-10T13:10:01;18.60;67.00
41628;DHT22;27321;50.816;6.054;2023-05-10T13:13:02;18.60;66.00
41628;DHT22;27321;50.816;6.054;2023-05-10T13:16:03;18.60;66.70
41628;DHT22;27321;50.816;6.054;2023-05-10T13:19:07;18.60;66.50
41628;DHT22;27321;50.816;6.054;2023-05-10T13:22:08;18.70;65.60
41628;DHT22;27321;50.816;6.054;2023-05-10T13:25:09;18.60;65.80
41628;DHT22;27321;50.816;6.054;2023-05-10T13:28:11;18.60;66.20
41628;DHT22;27321;50.816;6.054;2023-05-10T13:31:12;18.70;66.40
41628;DHT22;27321;50.816;6.054;2023-05-10T13:34:13;18.80;66.40
41628;DHT22;27321;50.816;6.054;2023-05-10T13:37:14;19.00;65.80
41628;DHT22;27321;50.816;6.054;2023-05-10T13:40:15;19.10;63.80
41628;DHT22;27321;50.816;6.054;2023-05-10T13:43:15;19.10;65.10
41628;DHT22;27321;50.816;6.054;2023-05-10T13:46:16;19.10;65.50
41628;DHT22;27321;50.816;6.054;2023-05-10T13:49:17;19.20;64.70
41628;DHT22;27321;50.816;6.054;2023-05-10T13:52:18;19.20;64.70
41628;DHT22;27321;50.816;6.054;2023-05-10T13:55:19;19.30;65.00
41628;DHT22;27321;50.816;6.054;2023-05-10T13:58:20;19.50;64.10
41628;DHT22;27321;50.816;6.054;2023-05-10T14:01:21;19.30;63.30
41628;DHT22;27321;50.816;6.054;2023-05-10T14:04:22;19.30;63.50
41628;DHT22;27321;50.816;6.054;2023-05-10T14:07:23;19.30;63.20
41628;DHT22;27321;50.816;6.054;2023-05-10T14:10:23;19.30;63.70
41628;DHT22;27321;50.816;6.054;2023-05-10T14:13:24;19.30;62.50
41628;DHT22;27321;50.816;6.054;2023-05-10T14:16:25;19.20;62.20
41628;DHT22;27321;50.816;6.054;2023-05-10T14:19:27;19.30;62.20
41628;DHT22;27321;50.816;6.054;2023-05-10T14:22:28;19.30;63.20
41628;DHT22;27321;50.816;6.054;2023-05-10T14:25:29;19.30;61.30
41628;DHT22;27321;50.816;6.054;2023-05-10T14:28:30;19.30;61.70
41628;DHT22;27321;50.816;6.054;2023-05-10T14:31:31;19.20;61.90
41628;DHT22;27321;50.816;6.054;2023-05-10T14:34:32;19.30;61.50
41628;DHT22;27321;50.816;6.054;2023-05-10T14:37:33;19.30;61.10
41628;DHT22;27321;50.816;6.054;2023-05-10T14:40:34;19.10;61.20
41628;DHT22;27321;50.816;6.054;2023-05-10T14:43:35;19.10;61.80
41628;DHT22;27321;50.816;6.054;2023-05-10T14:46:37;19.10;63.80
41628;DHT22;27321;50.816;6.054;2023-05-10T14:49:38;19.00;64.60
41628;DHT22;27321;50.816;6.054;2023-05-10T14:52:39;18.90;65.80
41628;DHT22;27321;50.816;6.054;2023-05-10T14:55:40;18.70;66.80
41628;DHT22;27321;50.816;6.054;2023-05-10T14:58:41;18.70;67.60
41628;DHT22;27321;50.816;6.054;2023-05-10T15:01:42;18.60;67.60
41628;DHT22;27321;50.816;6.054;2023-05-10T15:04:43;18.60;67.70
41628;DHT22;27321;50.816;6.054;2023-05-10T15:07:44;18.60;68.20
41628;DHT22;27321;50.816;6.054;2023-05-10T15:10:45;18.60;68.40
41628;DHT22;27321;50.816;6.054;2023-05-10T15:13:46;18.60;68.30
41628;DHT22;27321;50.816;6.054;2023-05-10T15:16:46;18.50;68.70
41628;DHT22;27321;50.816;6.054;2023-05-10T15:19:47;18.50;68.20
41628;DHT22;27321;50.816;6.054;2023-05-10T15:22:49;18.40;69.10
41628;DHT22;27321;50.816;6.054;2023-05-10T15:25:50;18.40;69.10
41628;DHT22;27321;50.816;6.054;2023-05-10T15:28:56;18.40;69.00
41628;DHT22;27321;50.816;6.054;2023-05-10T15:31:57;18.30;68.40
41628;DHT22;27321;50.816;6.054;2023-05-10T15:34:57;18.40;68.10
41628;DHT22;27321;50.816;6.054;2023-05-10T15:37:59;18.50;67.70
41628;DHT22;27321;50.816;6.054;2023-05-10T15:40:59;18.50;68.10
41628;DHT22;27321;50.816;6.054;2023-05-10T15:44:00;18.60;67.40
41628;DHT22;27321;50.816;6.054;2023-05-10T15:47:01;18.60;67.30
41628;DHT22;27321;50.816;6.054;2023-05-10T15:50:03;18.60;67.30
41628;DHT22;27321;50.816;6.054;2023-05-10T15:53:04;18.70;67.50
41628;DHT22;27321;50.816;6.054;2023-05-10T15:56:05;18.80;67.00
41628;DHT22;27321;50.816;6.054;2023-05-10T15:59:06;18.80;66.20
41628;DHT22;27321;50.816;6.054;2023-05-10T16:02:08;18.90;66.50
41628;DHT22;27321;50.816;6.054;2023-05-10T16:05:10;19.00;65.40
41628;DHT22;27321;50.816;6.054;2023-05-10T16:08:11;19.00;65.50
41628;DHT22;27321;50.816;6.054;2023-05-10T16:11:12;19.00;63.40
41628;DHT22;27321;50.816;6.054;2023-05-10T16:14:13;19.00;63.40
41628;DHT22;27321;50.816;6.054;2023-05-10T16:17:14;19.10;63.40
41628;DHT22;27321;50.816;6.054;2023-05-10T16:20:15;19.20;62.60
41628;DHT22;27321;50.816;6.054;2023-05-10T16:23:16;19.20;60.90
41628;DHT22;27321;50.816;6.054;2023-05-10T16:26:17;19.30;61.10
41628;DHT22;27321;50.816;6.054;2023-05-10T16:29:18;19.40;58.60
41628;DHT22;27321;50.816;6.054;2023-05-10T16:32:19;19.50;60.60
41628;DHT22;27321;50.816;6.054;2023-05-10T16:35:20;19.70;61.20
41628;DHT22;27321;50.816;6.054;2023-05-10T16:38:22;19.80;61.10
41628;DHT22;27321;50.816;6.054;2023-05-10T16:41:22;19.80;60.20
41628;DHT22;27321;50.816;6.054;2023-05-10T16:44:23;19.90;60.70
41628;DHT22;27321;50.816;6.054;2023-05-10T16:47:24;20.10;60.50
41628;DHT22;27321;50.816;6.054;2023-05-10T16:50:26;20.20;57.50
41628;DHT22;27321;50.816;6.054;2023-05-10T16:53:27;20.30;57.60
41628;DHT22;27321;50.816;6.054;2023-05-10T16:56:28;20.40;57.70
41628;DHT22;27321;50.816;6.054;2023-05-10T16:59:29;20.50;57.70
41628;DHT22;27321;50.816;6.054;2023-05-10T17:02:30;20.70;56.30
41628;DHT22;27321;50.816;6.054;2023-05-10T17:05:31;20.80;57.10
41628;DHT22;27321;50.816;6.054;2023-05-10T17:08:32;20.90;57.30
41628;DHT22;27321;50.816;6.054;2023-05-10T17:11:33;20.80;57.50
41628;DHT22;27321;50.816;6.054;2023-05-10T17:14:34;20.60;56.90
41628;DHT22;27321;50.816;6.054;2023-05-10T17:17:36;20.40;57.60
41628;DHT22;27321;50.816;6.054;2023-05-10T17:20:37;20.40;58.70
41628;DHT22;27321;50.816;6.054;2023-05-10T17:23:37;20.30;59.20
41628;DHT22;27321;50.816;6.054;2023-05-10T17:26:38;20.20;58.50
41628;DHT22;27321;50.816;6.054;2023-05-10T17:29:40;20.00;59.40
41628;DHT22;27321;50.816;6.054;2023-05-10T17:32:41;19.90;59.20
41628;DHT22;27321;50.816;6.054;2023-05-10T17:35:43;19.70;59.40
41628;DHT22;27321;50.816;6.054;2023-05-10T17:38:44;19.70;58.00
41628;DHT22;27321;50.816;6.054;2023-05-10T17:41:45;19.50;59.60
41628;DHT22;27321;50.816;6.054;2023-05-10T17:44:46;19.40;60.30
41628;DHT22;27321;50.816;6.054;2023-05-10T17:47:47;19.30;61.10
41628;DHT22;27321;50.816;6.054;2023-05-10T17:50:49;19.20;61.70
41628;DHT22;27321;50.816;6.054;2023-05-10T17:53:50;19.10;62.20
41628;DHT22;27321;50.816;6.054;2023-05-10T17:56:51;19.10;62.30
41628;DHT22;27321;50.816;6.054;2023-05-10T17:59:52;19.00;61.90
41628;DHT22;27321;50.816;6.054;2023-05-10T18:02:53;18.90;61.30
41628;DHT22;27321;50.816;6.054;2023-05-10T18:05:54;18.80;61.00
41628;DHT22;27321;50.816;6.054;2023-05-10T18:08:55;18.70;62.20
41628;DHT22;27321;50.816;6.054;2023-05-10T18:11:56;18.70;61.80
41628;DHT22;27321;50.816;6.054;2023-05-10T18:14:57;18.60;62.20
41628;DHT22;27321;50.816;6.054;2023-05-10T18:18:04;18.60;62.40
41628;DHT22;27321;50.816;6.054;2023-05-10T18:21:05;18.50;61.70
41628;DHT22;27321;50.816;6.054;2023-05-10T18:24:06;18.50;62.70
41628;DHT22;27321;50.816;6.054;2023-05-10T18:27:07;18.40;62.70
41628;DHT22;27321;50.816;6.054;2023-05-10T18:30:08;18.40;62.30
41628;DHT22;27321;50.816;6.054;2023-05-10T18:33:11;18.40;62.80
41628;DHT22;27321;50.816;6.054;2023-05-10T18:36:13;18.30;62.80
41628;DHT22;27321;50.816;6.054;2023-05-10T18:39:14;18.30;63.50
41628;DHT22;27321;50.816;6.054;2023-05-10T18:42:17;18.20;63.80
41628;DHT22;27321;50.816;6.054;2023-05-10T18:45:19;18.20;64.40
41628;DHT22;27321;50.816;6.054;2023-05-10T18:48:21;18.20;64.80
41628;DHT22;27321;50.816;6.054;2023-05-10T18:51:22;18.20;65.10
41628;DHT22;27321;50.816;6.054;2023-05-10T18:54:23;18.10;65.40
41628;DHT22;27321;50.816;6.054;2023-05-10T18:57:25;18.10;65.50
41628;DHT22;27321;50.816;6.054;2023-05-10T19:00:29;18.00;65.50
41628;DHT22;27321;50.816;6.054;2023-05-10T19:03:30;17.90;65.50
41628;DHT22;27321;50.816;6.054;2023-05-10T19:06:31;17.90;65.80
41628;DHT22;27321;50.816;6.054;2023-05-10T19:09:33;17.80;66.00
41628;DHT22;27321;50.816;6.054;2023-05-10T19:12:34;17.80;66.30
41628;DHT22;27321;50.816;6.054;2023-05-10T19:15:35;17.70;66.30
41628;DHT22;27321;50.816;6.054;2023-05-10T19:18:36;17.70;66.30
41628;DHT22;27321;50.816;6.054;2023-05-10T19:21:37;17.60;66.50
41628;DHT22;27321;50.816;6.054;2023-05-10T19:24:38;17.60;66.40
41628;DHT22;27321;50.816;6.054;2023-05-10T19:27:39;17.50;66.70
41628;DHT22;27321;50.816;6.054;2023-05-10T19:30:40;17.40;67.30
41628;DHT22;27321;50.816;6.054;2023-05-10T19:33:41;17.40;67.60
41628;DHT22;27321;50.816;6.054;2023-05-10T19:36:42;17.30;67.70